Matsumoto Airport
RJAF : now visible

Airfield :











YOU CAN JOIN US ON...

 
LOGIN :

Register | Disclaimer

   EN    FR    IT 

 









Legend :    VFR   Marginal VFR   IFR   Intensive IFR   Very Intensive IFR
Visi :
Ceiling :
>= 8 km
>= 3000ft
5 to 8 km
1000 to 3000 ft
1500m to 5 km
500 to 1000 ft
800 to 1500m
200 to 500 ft
< 800m
< 200 ft
Symbols :   Thunderstorms  Fog  Heavy snow  Heavy precipitations  Wind > 20 kt







- Airport Elevation : 2182 ft
- IATA code : MMJ


RJAF - Matsumoto

CURRENT METAR :
  • 220100Z 34004KT 260V060 9999 FEW030 SCT/// 16/08 Q1015

EXPIRED METARs :
  • 220000Z VRB03KT 9999 FEW025 BKN/// 15/08 Q1015
  • 212330Z 34003KT 240V040 9999 FEW025 BKN/// 13/07 Q1016
  • 212310Z VRB02KT 9999 FEW025 SCT070 BKN/// 12/07 Q1016 RMK 1CU025 3AC070 A3001

TAF N/A
RJJJ FIR / Asia



MET'MAP, your aeronautical weather chart ! - Copyright ORBIFLY December 2007 - Disclaimer

ORBIFLY MET'MAP TEAM :

Programming & Development : Alexandra Zaïnal
Concept & Development : Baudouin d'Aumeries
Co-Development & Prog : Marc-Olivier Méhu
Technical & hardware support : Manuel Goepfert

Contact : metmap@orbifly.com




SOURCES & CREDITS :

   NOAA       Earth
Advisory